Pagina principale
METAR-TAF:

METAR-TAF

Aeroporti :

Ponca City, Oklahoma, Stati Uniti

latitudine: 36-43-50N, longitudine: 097-05-59W, altezza: 307 m

Osservazione

Il bollettino è stato emesso 48 minuti fa, alle 04:53 UTC
Vento calmo
Temperature 22°C
Umidità 83%
Pressione 1017 hPa
Visibilità: 16.1 km
Cielo sereno

METAR: KPNC 230453Z AUTO 00000KT 10SM CLR 22/19 A3003 RMK AO2 SLP156 T02170189

Ora: 00:41 (05:41 UTC)

Previsione

Il bollettino è stato emesso 6 ore e 13 minuti fa, alle 23:28 UTC
Previsione valida dal 23 alle 00 UTC al 23 alle 24 UTC
Vento 4 kt da direzioni variabili
Visibilità: 10 km
Poco nuvoloso ad un'altezza di 25000 ft

TAF: KPNC 222328Z 2300/2324 VRB04KT P6SM FEW250

Osservazioni e previsioni meteorologiche di più di 4000 aeroporti (messaggi METAR e TAF).

Le stazioni disponibili sono rappresentate dai dischi gialli e rossi sulla carta.

Puntare il mouse per vedere il nome della stazione.

Clicca sopra per visualizzare le osservazioni e previsioni meteorologiche.

Per cambiare la mappa : fare clic sui pulsanti verdi con una croce nera per ingrandire, il pulsante verde con un trattino per diminuire, o sulla freccia verde per le mappe adiacenti.


METAR-TAF: